.
WxDataArchive / Data Records for 2009-11-04
2009-11-03 November 2009 2009-11-05

Data Records for Wednesday, 04 November 2009

Time	Temp	Chill	HIndex	Humid	Dewpt	 Wind 	HiWind	WindDir	Rain 	Barom 
-----	----	-----	------	-----	-----	------	------	-------	-----	----- 
00:00	30.9	30.9	30.9	89	28.0	0	0	---	0.00	30.354 
00:05	30.9	30.9	30.9	89	28.0	0	0	---	0.00	30.354 
00:10	30.7	30.7	30.7	89	27.8	0	0	---	0.00	30.354 
00:15	30.7	30.7	30.7	89	27.8	0	0	---	0.00	30.357 
00:20	30.7	30.7	30.7	89	27.8	0	0	---	0.00	30.357 
00:25	30.7	30.7	30.7	89	27.8	0	0	---	0.00	30.357 
00:30	30.7	30.7	30.7	89	27.8	0	0	---	0.00	30.356 
00:35	30.7	30.7	30.7	89	27.8	0	0	---	0.00	30.356 
00:40	30.7	30.7	30.7	89	27.8	0	0	---	0.00	30.356 
00:45	30.7	30.7	30.7	89	27.8	0	0	---	0.00	30.341 
00:50	30.9	30.9	30.9	89	28.0	0	0	---	0.00	30.341 
00:55	31.0	31.0	31.0	90	28.4	0	0	---	0.00	30.341 
01:00	31.5	31.5	31.5	90	28.9	0	1	292	0.00	30.326 
01:05	31.8	31.8	31.8	90	29.2	0	1	292	0.00	30.326 
01:10	32.1	32.1	32.1	90	29.5	0	0	---	0.00	30.326 
01:15	32.2	32.2	32.2	89	29.3	0	0	---	0.00	30.312 
01:20	32.4	32.4	32.4	89	29.5	0	0	---	0.00	30.312 
01:25	32.5	32.5	32.5	89	29.6	0	0	---	0.00	30.312 
01:30	32.5	32.5	32.5	89	29.6	0	1	292	0.00	30.340 
01:35	32.7	32.7	32.7	88	29.5	0	0	---	0.00	30.340 
01:40	32.8	32.8	32.8	88	29.6	0	0	---	0.00	30.340 
01:45	32.8	32.8	32.8	87	29.4	0	1	292	0.00	30.326 
01:50	32.8	32.8	32.8	87	29.4	0	0	---	0.00	30.326 
01:55	32.8	32.8	32.8	87	29.4	0	0	---	0.00	30.326 
02:00	32.8	32.8	32.8	86	29.1	0	0	---	0.00	30.325 
02:05	32.8	32.8	32.8	86	29.1	0	0	---	0.00	30.325 
02:10	32.9	32.9	32.9	86	29.2	0	0	---	0.00	30.325 
02:15	32.9	32.9	32.9	87	29.5	0	0	---	0.00	30.322 
02:20	33.1	33.1	33.1	87	29.7	0	0	---	0.00	30.322 
02:25	33.1	33.1	33.1	87	29.7	0	0	---	0.00	30.322 
02:30	33.1	33.1	33.1	87	29.7	0	0	---	0.00	30.320 
02:35	33.1	33.1	33.1	87	29.7	0	0	---	0.00	30.320 
02:40	33.1	33.1	33.1	87	29.7	0	1	292	0.00	30.320 
02:45	33.2	33.2	33.2	87	29.8	0	0	---	0.00	30.308 
02:50	33.4	33.4	33.4	87	30.0	0	0	---	0.00	30.308 
02:55	33.4	33.4	33.4	87	30.0	0	1	292	0.00	30.308 
03:00	33.5	33.5	33.5	86	29.8	0	0	---	0.00	30.302 
03:05	33.5	33.5	33.5	86	29.8	0	1	292	0.00	30.302 
03:10	33.7	33.7	33.7	85	29.7	0	1	292	0.00	30.302 
03:15	33.8	33.8	33.8	84	29.5	0	1	292	0.00	30.304 
03:20	34.0	34.0	34.0	84	29.7	0	0	---	0.00	30.304 
03:25	34.0	34.0	34.0	84	29.7	0	1	292	0.00	30.304 
03:30	34.1	34.1	34.1	84	29.8	0	1	292	0.00	30.301 
03:35	34.1	34.1	34.1	84	29.8	0	0	---	0.00	30.301 
03:40	34.3	34.3	34.3	84	30.0	0	0	---	0.00	30.301 
03:45	34.3	34.3	34.3	83	29.7	0	1	292	0.00	30.283 
03:50	34.4	34.4	34.4	83	29.8	0	1	292	0.00	30.283 
03:55	34.6	34.6	34.6	83	30.0	0	1	292	0.00	30.283 
04:00	34.7	34.7	34.7	83	30.1	0	2	292	0.00	30.259 
04:05	34.7	34.7	34.7	82	29.8	0	1	112	0.00	30.259 
04:10	34.9	34.9	34.9	81	29.7	0	1	112	0.00	30.259 
04:15	34.9	34.9	34.9	81	29.7	0	1	112	0.00	30.265 
04:20	35.0	35.0	35.0	81	29.8	0	1	112	0.00	30.265 
04:25	35.0	35.0	35.0	81	29.8	0	1	112	0.00	30.265 
04:30	35.0	35.0	35.0	81	29.8	0	1	112	0.00	30.286 
04:35	35.0	35.0	35.0	81	29.8	0	1	112	0.00	30.286 
04:40	35.2	35.2	35.2	81	30.0	0	1	112	0.00	30.286 
04:45	35.0	35.0	35.0	81	29.8	0	0	---	0.00	30.281 
04:50	35.0	35.0	35.0	81	29.8	0	0	---	0.00	30.281 
04:55	34.9	34.9	34.9	81	29.7	0	0	---	0.00	30.281 
05:00	34.9	34.9	34.9	81	29.7	0	0	---	0.00	30.276 
05:05	34.7	34.7	34.7	81	29.5	0	0	---	0.00	30.276 
05:10	34.6	34.6	34.6	82	29.7	0	0	---	0.00	30.276 
05:15	34.6	34.6	34.6	82	29.7	0	0	---	0.00	30.281 
05:20	34.6	34.6	34.6	82	29.7	0	0	---	0.00	30.281 
05:25	34.7	34.7	34.7	83	30.1	0	0	---	0.00	30.281 
05:30	34.9	34.9	34.9	83	30.3	0	0	---	0.00	30.280 
05:35	34.9	34.9	34.9	83	30.3	0	0	---	0.00	30.280 
05:40	35.0	35.0	35.0	84	30.7	0	0	---	0.00	30.280 
05:45	35.0	35.0	35.0	84	30.7	0	0	---	0.00	30.269 
05:50	35.2	35.2	35.2	84	30.9	0	0	---	0.00	30.269 
05:55	35.2	35.2	35.2	83	30.6	0	0	---	0.00	30.269 
06:00	35.2	35.2	35.2	83	30.6	0	0	---	0.00	30.269 
06:05	35.3	35.3	35.3	83	30.7	0	0	---	0.00	30.269 
06:10	35.3	35.3	35.3	83	30.7	0	0	---	0.00	30.269 
06:15	35.3	35.3	35.3	83	30.7	0	0	---	0.00	30.271 
06:20	35.5	35.5	35.5	83	30.9	0	0	---	0.00	30.271 
06:25	35.5	35.5	35.5	83	30.9	0	0	---	0.00	30.271 
06:30	35.5	35.5	35.5	83	30.9	0	0	---	0.00	30.274 
06:35	35.3	35.3	35.3	83	30.7	0	0	---	0.00	30.274 
06:40	35.3	35.3	35.3	83	30.7	0	0	---	0.00	30.274 
06:45	35.5	35.5	35.5	84	31.2	0	0	---	0.00	30.276 
06:50	35.5	35.5	35.5	84	31.2	0	0	---	0.00	30.276 
06:55	35.5	35.5	35.5	84	31.2	0	0	---	0.00	30.276 
07:00	35.6	35.6	35.6	84	31.3	0	0	---	0.00	30.273 
07:05	35.6	35.6	35.6	84	31.3	0	0	---	0.00	30.273 
07:10	35.8	35.8	35.8	84	31.4	0	0	---	0.00	30.273 
07:15	35.9	35.9	35.9	83	31.2	0	0	---	0.00	30.276 
07:20	36.0	36.0	36.0	83	31.3	0	0	---	0.00	30.276 
07:25	36.2	36.2	36.2	83	31.5	0	0	---	0.00	30.276 
07:30	36.3	36.3	36.3	83	31.6	0	1	112	0.00	30.272 
07:35	36.3	36.3	36.3	83	31.6	0	1	112	0.00	30.272 
07:40	36.5	36.5	36.5	83	31.8	0	0	---	0.00	30.272 
07:45	36.5	36.5	36.5	83	31.8	0	0	---	0.00	30.282 
07:50	36.6	36.6	36.6	83	31.9	0	0	---	0.00	30.282 
07:55	36.6	36.6	36.6	82	31.6	0	1	248	0.00	30.282 
08:00	36.8	36.8	36.8	82	31.8	0	1	248	0.00	30.279 
08:05	36.9	36.9	36.9	81	31.6	0	1	248	0.00	30.279 
08:10	36.9	36.9	36.9	81	31.6	0	1	248	0.00	30.279 
08:15	37.0	37.0	37.0	81	31.7	0	0	---	0.00	30.281 
08:20	37.2	37.2	37.2	81	31.9	0	1	248	0.00	30.281 
08:25	37.2	37.2	37.2	81	31.9	0	1	248	0.00	30.281 
08:30	37.3	37.3	37.3	82	32.3	0	1	248	0.00	30.281 
08:35	37.5	37.5	37.5	83	32.8	0	1	248	0.00	30.281 
08:40	37.5	37.5	37.5	83	32.8	0	1	248	0.00	30.281 
08:45	37.5	37.5	37.5	83	32.8	0	1	248	0.00	30.281 
08:50	37.5	37.5	37.5	83	32.8	0	2	248	0.00	30.281 
08:55	37.5	37.5	37.5	84	33.1	0	1	248	0.00	30.281 
09:00	37.6	37.6	37.6	84	33.2	0	3	248	0.00	30.274 
09:05	37.8	37.8	37.8	84	33.4	0	1	248	0.00	30.274 
09:10	37.9	37.9	37.9	84	33.5	0	1	248	0.00	30.274 
09:15	38.2	38.2	38.2	84	33.8	0	1	248	0.00	30.270 
09:20	38.3	38.3	38.3	83	33.6	0	2	248	0.00	30.270 
09:25	38.5	38.5	38.5	83	33.8	1	2	202	0.00	30.270 
09:30	38.8	38.8	38.8	84	34.4	0	1	158	0.00	30.267 
09:35	39.1	39.1	39.1	84	34.7	0	2	135	0.00	30.267 
09:40	39.3	39.3	39.3	84	34.9	0	1	135	0.00	30.267 
09:45	39.5	39.5	39.5	83	34.8	0	2	135	0.00	30.261 
09:50	39.6	39.6	39.6	81	34.3	0	0	---	0.00	30.261 
09:55	39.9	39.9	39.9	80	34.2	0	1	135	0.00	30.261 
10:00	40.3	40.3	40.3	80	34.6	0	0	---	0.00	30.261 
10:05	40.6	40.6	40.6	78	34.3	0	1	135	0.00	30.261 
10:10	40.9	40.9	40.9	78	34.6	0	1	135	0.00	30.261 
10:15	41.3	41.3	41.3	80	35.6	0	1	135	0.00	30.254 
10:20	41.6	41.6	41.6	79	35.6	0	2	135	0.00	30.254 
10:25	41.8	41.8	41.8	78	35.5	0	0	---	0.00	30.254 
10:30	41.9	41.9	41.9	76	34.9	0	1	135	0.00	30.253 
10:35	42.3	42.3	42.3	76	35.3	0	0	---	0.00	30.253 
10:40	42.6	42.6	42.6	74	34.9	0	0	---	0.00	30.253 
10:45	42.9	42.9	42.9	73	34.9	0	0	---	0.00	30.253 
10:50	43.2	43.2	43.2	72	34.8	0	0	---	0.00	30.253 
10:55	43.3	43.3	43.3	69	33.8	0	1	135	0.00	30.253 
11:00	43.6	43.6	43.6	70	34.5	0	1	135	0.00	30.250 
11:05	43.9	43.9	43.9	70	34.8	0	0	---	0.00	30.250 
11:10	44.2	44.2	44.2	69	34.7	0	0	---	0.00	30.250 
11:15	44.3	44.3	44.3	68	34.4	0	1	135	0.00	30.251 
11:20	44.6	44.6	44.6	69	35.1	0	2	135	0.00	30.251 
11:25	44.8	44.8	44.8	68	34.9	0	2	135	0.00	30.251 
11:30	45.1	45.1	45.1	66	34.4	0	1	135	0.00	30.244 
11:35	45.4	45.4	45.4	65	34.3	0	2	135	0.00	30.244 
11:40	45.7	45.7	45.7	65	34.6	0	1	135	0.00	30.244 
11:45	46.2	46.2	46.2	65	35.1	0	1	135	0.00	30.233 
11:50	46.7	46.7	46.7	65	35.6	0	2	135	0.00	30.233 
11:55	47.0	47.0	47.0	62	34.7	0	3	68	0.00	30.233 
12:00	47.1	47.1	47.1	61	34.4	0	2	68	0.00	30.229 
12:05	47.3	47.3	47.3	61	34.5	0	1	68	0.00	30.229 
12:10	47.4	47.4	47.4	61	34.6	0	2	68	0.00	30.229 
12:15	47.6	47.6	47.6	64	36.0	0	1	68	0.00	30.217 
12:20	47.7	47.7	47.7	58	33.7	0	3	68	0.00	30.217 
12:25	47.7	47.7	47.7	58	33.7	0	2	68	0.00	30.217 
12:30	47.9	47.9	47.9	58	33.8	0	1	68	0.00	30.212 
12:35	48.2	48.2	48.2	58	34.1	0	2	68	0.00	30.212 
12:40	48.3	48.3	48.3	57	33.8	0	2	112	0.00	30.212 
12:45	48.6	48.6	48.6	58	34.5	0	1	112	0.00	30.200 
12:50	48.8	48.8	48.8	55	33.4	0	2	112	0.00	30.200 
12:55	48.8	48.8	48.8	56	33.8	0	2	112	0.00	30.200 
13:00	48.8	48.8	48.8	55	33.4	0	1	112	0.00	30.192 
13:05	49.1	49.1	49.1	57	34.5	1	4	112	0.00	30.192 
13:10	49.4	49.4	49.4	54	33.5	1	4	90	0.00	30.192 
13:15	49.5	49.5	49.5	54	33.6	0	2	90	0.00	30.183 
13:20	49.5	49.5	49.5	54	33.6	1	4	112	0.00	30.183 
13:25	49.5	49.5	49.5	53	33.1	1	4	112	0.00	30.183 
13:30	49.6	49.6	49.6	53	33.2	1	3	112	0.00	30.179 
13:35	49.8	49.8	49.8	50	31.9	1	4	112	0.00	30.179 
13:40	49.8	49.8	49.8	50	31.9	1	3	112	0.00	30.179 
13:45	49.8	49.8	49.8	50	31.9	0	1	112	0.00	30.173 
13:50	49.9	49.9	49.9	50	32.0	0	1	112	0.00	30.173 
13:55	50.2	50.2	50.2	49	31.8	0	4	112	0.00	30.173 
14:00	50.4	50.4	50.4	50	32.5	1	3	112	0.00	30.163 
14:05	50.5	50.5	50.5	49	32.1	1	3	112	0.00	30.163 
14:10	50.5	50.5	50.5	48	31.5	1	3	135	0.00	30.163 
14:15	50.5	50.5	50.5	48	31.5	1	3	135	0.00	30.160 
14:20	50.4	50.4	50.4	50	32.5	1	4	112	0.00	30.160 
14:25	50.4	50.4	50.4	48	31.5	1	2	112	0.00	30.160 
14:30	50.5	50.5	50.5	49	32.1	0	1	112	0.00	30.157 
14:35	50.5	50.5	50.5	48	31.5	0	2	112	0.00	30.157 
14:40	50.5	50.5	50.5	48	31.5	1	2	112	0.00	30.157 
14:45	50.5	50.5	50.5	49	32.1	0	2	112	0.00	30.152 
14:50	50.7	50.7	50.7	50	32.7	0	3	112	0.00	30.152 
14:55	50.7	50.7	50.7	50	32.7	0	1	112	0.00	30.152 
15:00	50.8	50.8	50.8	50	32.8	0	2	112	0.00	30.150 
15:05	51.0	51.0	51.0	50	33.0	0	2	112	0.00	30.150 
15:10	51.0	51.0	51.0	49	32.5	0	1	112	0.00	30.150 
15:15	51.0	51.0	51.0	48	32.0	0	0	---	0.00	30.149 
15:20	50.8	50.8	50.8	49	32.3	1	4	112	0.00	30.149 
15:25	50.7	50.7	50.7	51	33.2	1	3	112	0.00	30.149 
15:30	50.5	50.5	50.5	50	32.6	0	1	90	0.00	30.150 
15:35	50.7	50.7	50.7	51	33.2	0	1	90	0.00	30.150 
15:40	50.7	50.7	50.7	51	33.2	1	2	90	0.00	30.150 
15:45	50.8	50.8	50.8	50	32.8	0	2	90	0.00	30.148 
15:50	51.1	51.1	51.1	52	34.1	0	2	90	0.00	30.148 
15:55	51.3	51.3	51.3	50	33.3	0	2	112	0.00	30.148 
16:00	51.1	51.1	51.1	50	33.1	0	2	112	0.00	30.146 
16:05	51.0	51.0	51.0	49	32.5	0	1	112	0.00	30.146 
16:10	50.8	50.8	50.8	49	32.3	0	1	112	0.00	30.146 
16:15	50.8	50.8	50.8	50	32.8	0	1	112	0.00	30.144 
16:20	50.7	50.7	50.7	51	33.2	0	2	112	0.00	30.144 
16:25	50.7	50.7	50.7	51	33.2	0	1	112	0.00	30.144 
16:30	50.5	50.5	50.5	50	32.6	0	1	112	0.00	30.146 
16:35	50.4	50.4	50.4	51	33.0	0	0	---	0.00	30.146 
16:40	50.2	50.2	50.2	52	33.3	0	0	---	0.00	30.146 
16:45	50.1	50.1	50.1	52	33.2	0	0	---	0.00	30.154 
16:50	50.1	50.1	50.1	51	32.7	0	0	---	0.00	30.154 
16:55	49.9	49.9	49.9	53	33.5	0	0	---	0.00	30.154 
17:00	49.9	49.9	49.9	53	33.5	0	0	---	0.00	30.159 
17:05	49.8	49.8	49.8	53	33.4	0	0	---	0.00	30.159 
17:10	49.6	49.6	49.6	54	33.6	0	0	---	0.00	30.159 
17:15	49.5	49.5	49.5	55	34.0	0	0	---	0.00	30.160 
17:20	49.4	49.4	49.4	54	33.5	0	0	---	0.00	30.160 
17:25	49.2	49.2	49.2	56	34.2	0	0	---	0.00	30.160 
17:30	48.9	48.9	48.9	57	34.3	0	0	---	0.00	30.161 
17:35	48.8	48.8	48.8	57	34.3	0	0	---	0.00	30.161 
17:40	48.6	48.6	48.6	57	34.1	0	0	---	0.00	30.161 
17:45	48.3	48.3	48.3	58	34.2	0	0	---	0.00	30.170 
17:50	48.0	48.0	48.0	59	34.4	0	0	---	0.00	30.170 
17:55	47.7	47.7	47.7	60	34.5	0	0	---	0.00	30.170 
18:00	47.3	47.3	47.3	60	34.1	0	0	---	0.00	30.174 
18:05	47.0	47.0	47.0	60	33.8	0	0	---	0.00	30.174 
18:10	46.7	46.7	46.7	62	34.4	0	0	---	0.00	30.174 
18:15	46.5	46.5	46.5	62	34.2	0	0	---	0.00	30.178 
18:20	46.5	46.5	46.5	63	34.6	0	0	---	0.00	30.178 
18:25	46.4	46.4	46.4	63	34.5	0	0	---	0.00	30.178 
18:30	46.4	46.4	46.4	63	34.5	0	1	112	0.00	30.178 
18:35	46.4	46.4	46.4	63	34.5	0	1	112	0.00	30.178 
18:40	46.5	46.5	46.5	62	34.2	0	0	---	0.00	30.178 
18:45	46.5	46.5	46.5	62	34.2	0	0	---	0.00	30.179 
18:50	46.7	46.7	46.7	62	34.4	0	0	---	0.00	30.179 
18:55	46.5	46.5	46.5	62	34.2	0	1	112	0.00	30.179 
19:00	46.5	46.5	46.5	62	34.2	0	2	112	0.00	30.178 
19:05	46.5	46.5	46.5	62	34.2	1	5	112	0.00	30.178 
19:10	46.4	46.4	46.4	63	34.5	1	3	90	0.00	30.178 
19:15	46.2	46.2	46.2	64	34.7	0	3	90	0.00	30.174 
19:20	46.2	46.2	46.2	64	34.7	0	2	90	0.00	30.174 
19:25	46.1	46.1	46.1	64	34.6	0	2	90	0.00	30.174 
19:30	46.0	46.0	46.0	64	34.5	0	3	90	0.00	30.176 
19:35	46.0	46.0	46.0	64	34.5	0	3	90	0.00	30.176 
19:40	46.0	46.0	46.0	63	34.1	1	4	90	0.00	30.176 
19:45	46.0	46.0	46.0	63	34.1	1	2	90	0.00	30.170 
19:50	46.0	46.0	46.0	63	34.1	1	2	90	0.00	30.170 
19:55	46.0	46.0	46.0	64	34.5	0	1	90	0.00	30.170 
20:00	45.8	45.8	45.8	64	34.3	1	2	112	0.00	30.167 
20:05	45.7	45.7	45.7	64	34.2	1	3	112	0.00	30.167 
20:10	45.7	45.7	45.7	64	34.2	1	4	68	0.00	30.167 
20:15	45.5	45.5	45.5	64	34.0	1	3	68	0.00	30.163 
20:20	45.5	45.5	45.5	65	34.4	1	4	68	0.00	30.163 
20:25	45.4	45.4	45.4	65	34.3	1	3	68	0.00	30.163 
20:30	45.4	45.4	45.4	65	34.3	0	3	90	0.00	30.164 
20:35	45.2	45.2	45.2	66	34.5	1	3	90	0.00	30.164 
20:40	45.1	45.1	45.1	66	34.4	0	2	90	0.00	30.164 
20:45	44.9	44.9	44.9	67	34.6	0	2	90	0.00	30.170 
20:50	44.8	44.8	44.8	67	34.5	0	1	90	0.00	30.170 
20:55	44.5	44.5	44.5	68	34.6	0	0	---	0.00	30.170 
21:00	44.3	44.3	44.3	69	34.8	0	1	90	0.00	30.174 
21:05	44.1	44.1	44.1	70	35.0	0	0	---	0.00	30.174 
21:10	43.8	43.8	43.8	71	35.0	0	1	90	0.00	30.174 
21:15	43.6	43.6	43.6	71	34.8	0	2	90	0.00	30.167 
21:20	43.5	43.5	43.5	71	34.7	0	2	90	0.00	30.167 
21:25	43.5	43.5	43.5	72	35.1	0	1	90	0.00	30.167 
21:30	43.3	43.3	43.3	73	35.2	0	1	90	0.00	30.176 
21:35	43.1	43.1	43.1	73	35.0	0	2	90	0.00	30.176 
21:40	43.1	43.1	43.1	74	35.4	0	1	90	0.00	30.176 
21:45	43.1	43.1	43.1	74	35.4	0	1	90	0.00	30.179 
21:50	43.1	43.1	43.1	74	35.4	1	2	90	0.00	30.179 
21:55	43.2	43.2	43.2	74	35.5	0	1	90	0.00	30.179 
22:00	43.3	43.3	43.3	75	35.9	1	3	90	0.00	30.176 
22:05	43.2	43.2	43.2	75	35.8	1	3	90	0.00	30.176 
22:10	43.2	43.2	43.2	76	36.2	0	2	90	0.00	30.176 
22:15	43.1	43.1	43.1	76	36.1	0	2	90	0.00	30.169 
22:20	42.9	42.9	42.9	76	35.9	0	1	90	0.00	30.169 
22:25	42.8	42.8	42.8	77	36.1	0	1	90	0.00	30.169 
22:30	42.6	42.6	42.6	77	35.9	0	1	90	0.00	30.172 
22:35	42.6	42.6	42.6	77	35.9	0	0	---	0.00	30.172 
22:40	42.5	42.5	42.5	77	35.8	0	0	---	0.00	30.172 
22:45	42.5	42.5	42.5	77	35.8	0	0	---	0.00	30.170 
22:50	42.5	42.5	42.5	77	35.8	0	0	---	0.00	30.170 
22:55	42.5	42.5	42.5	77	35.8	0	1	90	0.00	30.170 
23:00	42.5	42.5	42.5	77	35.8	0	1	90	0.00	30.170 
23:05	42.6	42.6	42.6	77	35.9	0	0	---	0.00	30.170 
23:10	42.8	42.8	42.8	77	36.1	0	1	90	0.00	30.170 
23:15	42.8	42.8	42.8	77	36.1	0	0	---	0.00	30.171 
23:20	42.6	42.6	42.6	77	35.9	0	0	---	0.00	30.171 
23:25	42.6	42.6	42.6	77	35.9	0	0	---	0.00	30.171 
23:30	42.6	42.6	42.6	77	35.9	0	0	---	0.00	30.172 
23:35	42.6	42.6	42.6	78	36.2	0	0	---	0.00	30.172 
23:40	42.6	42.6	42.6	79	36.6	0	1	90	0.00	30.172 
23:45	42.6	42.6	42.6	79	36.6	0	0	---	0.00	30.172 
23:50	42.6	42.6	42.6	79	36.6	0	1	90	0.00	30.172 
23:55	42.6	42.6	42.6	79	36.6	0	0	---	0.00	30.172 

CoCoRaHS
IN-AL-39
A2 Web Hosting
Creative Commons License
GoDaddy
search engine by freefind advanced

loaded 2018-11-15 06:01:08 • last modified 2010-11-18 10:43:29
Privacy PolicyDisclaimer
• wx.awcolley.com is powered by PmWiki v.2002016 •
• all content (unless otherwise noted) © 2018 A W Colley